CheckWX is a tool to help pilots better visualize weather data.  It is not intended as a substitute for an official pre-flight weather briefing.

08:17:40 UTC

PACD TAF
Cold Bay Airport
Cold Bay, Alaska, USA
PACD 210708Z 2107/2206 24015KT P6SM -SHRA BKN025 OVC050 FM211400 21012KT P6SM SCT025 BKN050 FM212000 17009KT P6SM FEW020 SCT050 FM220200 14014KT P6SM BKN050 OVC110

Oct-21@
07:00 UTC

Oct-21 @ 07:00 UTC

Oct-21@
14:00 UTC

Oct-21 @ 14:00 UTC

PACD 210708Z 2107/2206 24015KT P6SM -SHRA BKN025 OVC050
Wind
  • 240° at 15 KTS
Conditions
Light Rain
Cloud Levels
  • Broken at 2,500' AGL
  • Overcast at 5,000' AGL

Oct-21@
14:00 UTC

Oct-21 @ 14:00 UTC

Oct-21@
20:00 UTC

Oct-21 @ 20:00 UTC

FM211400 21012KT P6SM SCT025 BKN050

From

From Standard forecast or significant change

Wind
  • 210° at 12 KTS
Cloud Levels
  • Scattered at 2,500' AGL
  • Broken at 5,000' AGL

Oct-21@
20:00 UTC

Oct-21 @ 20:00 UTC

Oct-22@
02:00 UTC

Oct-22 @ 02:00 UTC

FM212000 17009KT P6SM FEW020 SCT050

From

From Standard forecast or significant change

Wind
  • 170° at 9 KTS
Cloud Levels
  • Few at 2,000' AGL
  • Scattered at 5,000' AGL

Oct-22@
02:00 UTC

Oct-22 @ 02:00 UTC

Oct-22@
06:00 UTC

Oct-22 @ 06:00 UTC

FM220200 14014KT P6SM BKN050 OVC110

From

From Standard forecast or significant change

Wind
  • 140° at 14 KTS
Cloud Levels
  • Broken at 5,000' AGL
  • Overcast at 11,000' AGL